LiveATC.Net - Listen to live air traffic control over the Internet!


ICAO: KPAE  IATA: PAE   Airport: Snohomish County Airport (Paine Field)
City: Everett   State/Province: Washington
Country: United States   Continent: North America
KPAE METAR Weather: KPAE 081353Z AUTO 15005KT 10SM CLR 03/01 A3042 RMK AO2 SLP304 T00330011
KPAE ADS-B Flight Tracking  (ADSBExchange)
KPAE Flight Activity (FlightAware)
KPAE Webcam:  (Airport Webcams) 
KPAE Airport Info   (iFlightPlanner)
KPAE VFR Sectional Chart   (iFlightPlanner) 
KPAE IFR Low Altitude Chart   (iFlightPlanner) 
KPAE IFR High Altitude Chart   (iFlightPlanner) 

KPAE Ground/Tower
Feed Status: UP   Listeners: 0
Listen in your browser - HTML5 player (in browser, HTML5)
Click here to listen with your own player (launches your MP3 player)
Archive Access: KPAE Ground/Tower
FacilityFrequency
Paine Ground121.800
Paine Tower120.200
Paine Tower132.950

NOTICE

Unauthorized use prohibited. See LiveATC.net Terms of Service


Airport/ARTCC Code
Frequency Search
(e.g., 124.400, 128.75)
Site-wide search
 


Browse Feeds
Top 50 Feeds
HF Oceanic Feeds
Coverage Map
Bad Weather Areas

LiveATC FAQ
Offer LiveATC feed
Contact LiveATC.net
Press Inquiries

LiveATC on iPhone
LiveATC on Android

LiveATC Mobile
(Mobile browser)

ATC Audio Archives
Interesting Recordings

LiveATC Forums


Home Page
About LiveATC.net


Terms of Use
Privacy Policy

AIRMETs/SIGMETs

FAA Airport Status
NAS Status
Arrival Demand


Server Software By:
Icecast.org
Liquidsoap